createdAt,value
2022-08-12T00:02:33.913Z,3.90
2022-08-12T00:07:33.890Z,3.90
2022-08-12T00:12:33.892Z,4.40
2022-08-12T00:17:33.887Z,4.40
2022-08-12T00:22:33.948Z,4.40
2022-08-12T00:27:43.628Z,4.10
2022-08-12T00:32:35.982Z,4.10
2022-08-12T00:37:33.991Z,4.10
2022-08-12T00:47:33.894Z,3.80
2022-08-12T00:52:33.910Z,3.80
2022-08-12T01:07:33.900Z,3.40
2022-08-12T01:12:33.902Z,6.60
2022-08-12T01:17:33.914Z,6.60
2022-08-12T01:22:34.250Z,6.60
2022-08-12T01:37:33.923Z,3.30
2022-08-12T01:42:33.923Z,5.00
2022-08-12T01:47:33.932Z,5.00
2022-08-12T01:52:33.932Z,5.00
2022-08-12T01:57:58.770Z,5.00
2022-08-12T02:02:33.927Z,5.00
2022-08-12T02:07:33.937Z,5.00
2022-08-12T02:17:55.479Z,6.20
2022-08-12T02:22:33.939Z,6.20
2022-08-12T02:27:33.945Z,4.90
2022-08-12T02:32:33.955Z,4.90
2022-08-12T02:42:33.953Z,5.00
2022-08-12T02:48:00.078Z,5.00
2022-08-12T03:07:56.114Z,8.20
2022-08-12T03:12:34.427Z,6.70
2022-08-12T03:17:33.963Z,6.70
2022-08-12T03:27:33.973Z,5.00
2022-08-12T03:32:36.208Z,5.00
2022-08-12T03:42:34.538Z,5.90
2022-08-12T03:47:33.978Z,5.90
2022-08-12T03:52:33.981Z,5.90
2022-08-12T03:57:33.975Z,4.40
2022-08-12T04:07:33.998Z,4.40
2022-08-12T04:12:34.095Z,5.00
2022-08-12T04:17:33.991Z,5.00
2022-08-12T04:22:33.984Z,5.00
2022-08-12T04:37:58.471Z,5.90
2022-08-12T04:42:33.999Z,4.70
2022-08-12T04:47:33.998Z,4.70
2022-08-12T04:52:35.009Z,4.70
2022-08-12T05:02:34.217Z,5.60
2022-08-12T05:12:34.033Z,5.60
2022-08-12T05:17:34.010Z,5.60
2022-08-12T05:37:34.031Z,5.00
2022-08-12T05:42:34.692Z,6.70
2022-08-12T05:47:36.708Z,6.70
2022-08-12T05:52:34.033Z,6.70
2022-08-12T05:57:34.036Z,7.10
2022-08-12T06:02:34.034Z,7.10
2022-08-12T06:08:00.592Z,7.10
2022-08-12T06:12:34.056Z,6.10
2022-08-12T06:17:34.035Z,6.10
2022-08-12T06:22:34.040Z,6.10
2022-08-12T06:27:34.049Z,6.80
2022-08-12T06:32:34.610Z,6.80
2022-08-12T06:37:34.060Z,6.80
2022-08-12T06:42:34.070Z,8.10
2022-08-12T06:52:34.063Z,8.10
2022-08-12T06:58:05.341Z,6.80
2022-08-12T07:07:34.057Z,6.80
2022-08-12T07:12:34.061Z,6.50
2022-08-12T07:17:34.068Z,6.50
2022-08-12T07:22:34.076Z,6.50
2022-08-12T07:27:35.040Z,7.40
2022-08-12T07:32:34.076Z,7.40
2022-08-12T07:37:34.077Z,7.40
2022-08-12T07:42:34.077Z,7.50
2022-08-12T07:47:34.081Z,7.50
2022-08-12T07:52:34.100Z,7.50
2022-08-12T07:57:34.082Z,8.70
2022-08-12T08:02:34.111Z,8.70
2022-08-12T08:07:34.092Z,8.70
2022-08-12T08:12:34.099Z,6.80
2022-08-12T08:17:34.100Z,6.80
2022-08-12T08:27:34.100Z,5.40
2022-08-12T08:37:37.073Z,5.40
2022-08-12T08:42:34.105Z,6.30
2022-08-12T08:47:34.101Z,6.30
2022-08-12T08:57:43.057Z,7.90
2022-08-12T09:02:34.105Z,7.90
2022-08-12T09:07:52.027Z,7.90
2022-08-12T09:17:41.999Z,6.10
2022-08-12T09:28:04.296Z,6.40
2022-08-12T09:33:03.907Z,6.40
2022-08-12T09:37:58.591Z,6.40
2022-08-12T09:42:43.499Z,5.50
2022-08-12T09:47:34.144Z,5.50
2022-08-12T09:52:34.143Z,5.50
2022-08-12T09:58:46.933Z,6.20
2022-08-12T10:02:44.670Z,6.20
2022-08-12T10:07:39.936Z,6.20
2022-08-12T10:12:34.135Z,6.20
2022-08-12T10:17:34.148Z,6.20
2022-08-12T10:22:37.060Z,6.20
2022-08-12T10:27:39.568Z,5.10
2022-08-12T10:32:42.954Z,5.10
2022-08-12T10:38:35.751Z,5.10
2022-08-12T10:42:34.162Z,6.40
2022-08-12T10:48:16.090Z,6.40
2022-08-12T10:52:37.861Z,6.40
2022-08-12T10:58:14.138Z,4.60
2022-08-12T11:04:25.444Z,4.60
2022-08-12T11:08:36.035Z,4.60
2022-08-12T11:12:55.505Z,4.00
2022-08-12T11:17:52.640Z,4.00
2022-08-12T11:22:34.268Z,4.00
2022-08-12T11:32:38.743Z,5.10
2022-08-12T11:37:58.099Z,5.10
2022-08-12T11:42:34.160Z,5.00
2022-08-12T11:47:34.156Z,5.00
2022-08-12T11:52:56.300Z,5.00
2022-08-12T11:58:32.215Z,4.00
2022-08-12T12:02:34.424Z,4.00
2022-08-12T12:08:37.532Z,4.00
2022-08-12T12:12:34.176Z,7.30
2022-08-12T12:17:38.334Z,7.30
2022-08-12T12:22:34.187Z,7.30
2022-08-12T12:28:03.664Z,3.60
2022-08-12T12:32:34.190Z,3.60
2022-08-12T12:38:03.558Z,3.60
2022-08-12T12:42:52.146Z,4.20
2022-08-12T12:47:34.211Z,4.20
2022-08-12T12:52:34.220Z,4.20
2022-08-12T12:57:36.207Z,5.70
2022-08-12T13:02:34.226Z,5.70
2022-08-12T13:07:49.295Z,5.70
2022-08-12T13:12:34.236Z,5.10
2022-08-12T13:18:00.840Z,5.10
2022-08-12T13:22:34.340Z,5.10
2022-08-12T13:27:34.510Z,4.90
2022-08-12T13:32:34.246Z,4.90
2022-08-12T13:42:34.250Z,4.70
2022-08-12T13:47:34.241Z,4.70
2022-08-12T13:52:34.242Z,4.70
2022-08-12T13:57:34.252Z,3.70
2022-08-12T14:02:34.250Z,3.70
2022-08-12T14:07:46.071Z,3.70
2022-08-12T14:12:34.255Z,4.10
2022-08-12T14:17:38.032Z,4.10
2022-08-12T14:22:34.260Z,4.10
2022-08-12T14:28:02.634Z,3.60
2022-08-12T14:32:34.812Z,3.60
2022-08-12T14:37:56.444Z,3.60
2022-08-12T14:47:35.473Z,3.90
2022-08-12T14:53:42.354Z,3.90
2022-08-12T14:58:09.529Z,3.60
2022-08-12T15:02:34.294Z,3.60
2022-08-12T15:07:50.128Z,3.60
2022-08-12T15:12:34.289Z,4.90
2022-08-12T15:22:37.104Z,4.90
2022-08-12T15:28:04.341Z,4.00
2022-08-12T15:32:34.298Z,4.00
2022-08-12T15:38:08.014Z,4.00
2022-08-12T15:42:34.302Z,4.00
2022-08-12T15:47:48.260Z,4.00
2022-08-12T15:52:34.318Z,4.00
2022-08-12T15:57:34.381Z,3.40
2022-08-12T16:12:34.325Z,2.60
2022-08-12T16:18:23.648Z,2.60
2022-08-12T16:22:34.326Z,2.60
2022-08-12T16:27:38.529Z,1.60
2022-08-12T16:32:34.326Z,1.60
2022-08-12T16:38:25.708Z,1.60
2022-08-12T16:47:57.784Z,3.50
2022-08-12T16:52:34.336Z,3.50
2022-08-12T16:57:34.925Z,5.10
2022-08-12T17:02:34.508Z,5.10
2022-08-12T17:12:37.324Z,2.90
2022-08-12T17:22:34.352Z,2.90
2022-08-12T17:32:34.358Z,3.40
2022-08-12T17:37:34.348Z,3.40
2022-08-12T17:42:35.555Z,5.60
2022-08-12T17:47:35.778Z,5.60
2022-08-12T17:57:34.399Z,3.80
2022-08-12T18:02:34.373Z,3.80
2022-08-12T18:07:36.000Z,3.80
2022-08-12T18:12:35.504Z,3.30
2022-08-12T18:17:34.737Z,3.30
2022-08-12T18:22:34.371Z,3.30
2022-08-12T18:27:44.908Z,3.20
2022-08-12T18:37:41.682Z,3.20
2022-08-12T18:47:46.703Z,3.50
2022-08-12T18:52:34.385Z,3.50
2022-08-12T18:58:06.825Z,4.00
2022-08-12T19:07:49.470Z,4.00
2022-08-12T19:12:34.629Z,4.00
2022-08-12T19:17:47.612Z,4.00
2022-08-12T19:22:34.410Z,4.00
2022-08-12T19:27:34.390Z,4.20
2022-08-12T19:32:34.464Z,4.20
2022-08-12T19:38:02.564Z,4.20
2022-08-12T19:42:35.497Z,4.10
2022-08-12T19:52:34.421Z,4.10
2022-08-12T19:57:34.407Z,5.50
2022-08-12T20:02:34.583Z,5.50
2022-08-12T20:07:42.841Z,5.50
2022-08-12T20:12:34.548Z,4.00
2022-08-12T20:17:36.329Z,4.00
2022-08-12T20:22:34.441Z,4.00
2022-08-12T20:28:05.211Z,5.20
2022-08-12T20:32:37.491Z,5.20
2022-08-12T20:38:07.181Z,5.20
2022-08-12T20:42:34.434Z,6.40
2022-08-12T20:52:35.135Z,6.40
2022-08-12T20:57:38.461Z,4.60
2022-08-12T21:02:34.655Z,4.60
2022-08-12T21:07:34.451Z,4.60
2022-08-12T21:12:34.651Z,3.90
2022-08-12T21:18:00.767Z,3.90
2022-08-12T21:22:34.551Z,3.90
2022-08-12T21:27:57.719Z,6.20
2022-08-12T21:37:37.364Z,6.20
2022-08-12T21:42:34.457Z,4.10
2022-08-12T21:47:34.452Z,4.10
2022-08-12T21:57:36.442Z,5.30
2022-08-12T22:07:43.060Z,5.30
2022-08-12T22:12:34.487Z,5.70
2022-08-12T22:27:34.485Z,4.50
2022-08-12T22:32:34.805Z,4.50
2022-08-12T22:37:34.496Z,4.50
2022-08-12T22:42:34.504Z,3.80
2022-08-12T22:52:34.496Z,3.80
2022-08-12T23:07:36.360Z,4.70
2022-08-12T23:12:34.508Z,4.70
2022-08-12T23:17:40.933Z,4.70
2022-08-12T23:22:36.482Z,4.30
2022-08-12T23:27:51.238Z,4.30
2022-08-12T23:32:36.026Z,4.30
2022-08-12T23:37:47.171Z,4.20
2022-08-12T23:47:34.516Z,4.20
2022-08-12T23:52:35.024Z,4.90
